ADDS METAR Data INFO
IDs: Format: Raw Decoded Include TAF

Data at: 2053 UTC 24 Jun 2017

KTOR 241953Z AUTO 18008KT 10SM FEW090 23/M01 A3028 RMK AO2 SLP220 T02331011
KTOR 241853Z AUTO 00000KT 10SM CLR 22/M02 A3030 RMK AO2 SLP227 T02221017
KTOR 241753Z AUTO VRB04KT 10SM SCT075 22/M01 A3031 RMK AO2 SLP231 T02171011 10222 20111 58001
KTOR 241653Z AUTO 22005KT 10SM FEW080 19/M01 A3031 RMK AO2 SLP238 T01891006
KTOR 241553Z AUTO 23005KT 10SM FEW075 BKN110 17/01 A3031 RMK AO2 SLP240 T01670006
KTOR 241453Z AUTO 00000KT 10SM BKN070 OVC085 14/02 A3031 RMK AO2 SLP238 T01440022 53007
KTOR 241353Z AUTO 00000KT 10SM BKN080 BKN090 OVC110 13/03 A3030 RMK AO2 SLP231 T01280033
KTOR 241253Z AUTO 00000KT 10SM BKN070 BKN090 OVC110 11/05 A3029 RMK AO2 SLP228 T01110050
KTOR 241153Z AUTO 00000KT 10SM OVC080 11/02 A3029 RMK AO2 SLP226 T01110022 10128 20094 55001
KTOR 241053Z AUTO 00000KT 10SM OVC080 11/02 A3029 RMK AO2 SLP228 T01110022
KTOR 240953Z AUTO 06003KT 10SM OVC100 10/03 A3028 RMK AO2 SLP223 T01000033
KTOR 240853Z AUTO 00000KT 10SM BKN100 12/02 A3029 RMK AO2 SLP227 T01170022 50000
KTOR 240753Z AUTO 00000KT 10SM OVC100 12/01 A3030 RMK AO2 SLP231 T01220011
KTOR 240653Z AUTO 32003KT 10SM SCT090 OVC100 12/01 A3030 RMK AO2 SLP229 T01170011 402330106
KTOR 240553Z AUTO 00000KT 10SM BKN080 BKN120 12/M01 A3029 RMK AO2 SLP230 T01221006 10222 20106 51017
KTOR 240453Z AUTO 05007KT 10SM CLR 11/M01 A3028 RMK AO2 SLP231 T01111011
KTOR 240353Z AUTO 06007KT 10SM CLR 13/M02 A3027 RMK AO2 SLP225 T01281017
KTOR 240253Z AUTO 05011KT 10SM CLR 16/M03 A3024 RMK AO2 SLP212 T01561028 53018
KTOR 240153Z AUTO 01008KT 10SM CLR 19/M03 A3021 RMK AO2 SLP200 T01891028
KTOR 240053Z AUTO 36011KT 10SM CLR 21/M04 A3020 RMK AO2 SLP194 T02111039
KTOR 232353Z AUTO 33012G26KT 10SM FEW095 22/M03 A3018 RMK AO2 PK WND 01026/2345 SLP187 T02221033 10233 20183 56003
KTOR 232253Z AUTO 34010KT 10SM CLR 20/M03 A3018 RMK AO2 SLP191 T02001028
KTOR 232153Z AUTO 30015G19KT 10SM BKN080 23/M01 A3018 RMK AO2 SLP186 T02281011
KTOR 232053Z AUTO 02007G18KT 340V040 10SM CLR 22/M02 A3018 RMK AO2 SLP186 T02171017 58010
KTOR 231953Z AUTO 30011G19KT 10SM CLR 21/M01 A3020 RMK AO2 SLP188 T02111006
KTOR 231853Z AUTO 29008G18KT 10SM CLR 20/M01 A3021 RMK AO2 SLP195 T02001011
KTOR 231753Z AUTO 35010G18KT 10SM CLR 19/00 A3022 RMK AO2 SLP200 T01890000 10194 20106 58013
KTOR 231653Z AUTO 31008G16KT 10SM CLR 17/02 A3024 RMK AO2 SLP203 T01720017
KTOR 231553Z AUTO 35006KT 10SM OVC080 16/03 A3025 RMK AO2 SLP208 T01560028
KTOR 231453Z AUTO 34006KT 10SM OVC075 14/03 A3026 RMK AO2 SLP212 T01390028 53004
KTOR 231353Z AUTO 30006KT 10SM OVC070 13/04 A3026 RMK AO2 SLP211 T01280044
KTOR 231253Z AUTO 26006KT 10SM OVC070 11/05 A3025 RMK AO2 SLP206 T01110050
KTOR 231153Z AUTO 28005KT 10SM OVC065 11/04 A3025 RMK AO2 SLP206 70003 T01060044 10161 20106 50017
KTOR 231053Z AUTO 34009G17KT 10SM OVC060 11/04 A3027 RMK AO2 PK WND 36027/0958 SLP210 T01110039
KTOR 230953Z AUTO 36013G24KT 10SM OVC055 12/03 A3025 RMK AO2 PK WND 01028/0902 SLP202 T01170033


Page loaded:  20:53 UTC  |   01:53 PM Pacific  |   02:53 PM Mountain  |   03:53 PM Central  |   04:53 PM Eastern

 

ADVISORIES

FORECASTS

FORECASTS

OBSERVATIONS

USER TOOLS

ABOUT US